Time;durP1;ratioP1;P1;durP2;ratioP2;P2;SDS_P1;SDS_P2;PMS_P1;PMS_P2;Temp;Humidity;BMP_temperature;BMP_pressure;BME280_temperature;BME280_humidity;BME280_pressure;Samples;Min_cycle;Max_cycle;Signal;HPM_P1;HPM_P2
2022/06/30 00:02:17;;;;;;;;;;;;;;;21.69;67.97;99436.84;1087891;54;20010;-81
2022/06/30 00:03:18;;;;;;;;;;;;;;;21.66;68.09;99435.41;1088521;46;19968;-81
2022/06/30 00:04:22;;;;;;;;;;;;;;;21.65;68.18;99433.75;1088093;54;19949;-83
2022/06/30 00:05:23;;;;;;;;;;;;;;;21.59;68.23;99440.94;1088061;54;19943;-83
2022/06/30 00:06:29;;;;;;;;;;;;;;;21.59;67.91;99438.22;1088506;54;19999;-83
2022/06/30 00:07:30;;;;;;;;;;;;;;;21.64;67.87;99438.34;1089307;39;20492;-82
2022/06/30 00:08:34;;;;;;;;;;;;;;;21.64;68.22;99434.81;1088352;54;19947;-81
2022/06/30 00:09:35;;;;;;;;;;;;;;;21.62;68.14;99440.50;1094906;39;20793;-83
2022/06/30 00:10:39;;;;;;;;;;;;;;;21.58;68.24;99444.72;1088732;39;20512;-83
2022/06/30 00:11:41;;;;;;;;;;;;;;;21.56;68.42;99446.00;1087985;54;19931;-84
2022/06/30 00:12:44;;;;;;;;;;;;;;;21.53;68.23;99438.28;1088534;46;20030;-82
2022/06/30 00:13:46;;;;;;;;;;;;;;;21.51;68.59;99439.34;1088000;54;19962;-83
2022/06/30 00:14:50;;;;;;;;;;;;;;;21.50;68.42;99443.13;1087879;54;19943;-81
2022/06/30 00:15:57;;;;;;;;;;;;;;;21.49;68.53;99441.47;1087843;54;19954;-82
2022/06/30 00:17:01;;;;;;;;;;;;;;;21.47;68.77;99431.88;1089174;46;19963;-81
2022/06/30 00:18:05;;;;;;;;;;;;;;;21.49;68.59;99440.66;1087799;54;19950;-81
2022/06/30 00:19:06;;;;;;;;;;;;;;;21.57;68.26;99434.88;1087896;54;20646;-81
2022/06/30 00:20:11;;;;;;;;;;;;;;;21.60;68.30;99433.59;1087904;54;19949;-80
2022/06/30 00:21:12;;;;;;;;;;;;;;;21.56;68.27;99432.41;1087870;54;19965;-82
2022/06/30 00:22:19;;;;;;;;;;;;;;;21.57;68.60;99434.88;1087880;54;19942;-80
2022/06/30 00:23:20;;;;;;;;;;;;;;;21.51;68.79;99431.19;1087875;54;19966;-81
2022/06/30 00:24:24;;;;;;;;;;;;;;;21.45;69.47;99434.00;1091951;39;20538;-81
2022/06/30 00:25:25;;;;;;;;;;;;;;;21.41;69.79;99443.69;1087833;54;19950;-81
2022/06/30 00:26:29;;;;;;;;;;;;;;;21.37;70.50;99431.63;1087885;54;19942;-81
2022/06/30 00:27:32;;;;;;;;;;;;;;;21.33;70.49;99434.81;1087678;54;19943;-81
2022/06/30 00:28:36;;;;;;;;;;;;;;;21.32;70.48;99441.31;1087819;54;19942;-82
2022/06/30 00:29:38;;;;;;;;;;;;;;;21.32;70.58;99435.03;1087907;54;19966;-81
2022/06/30 00:30:41;;;;;;;;;;;;;;;21.32;70.65;99433.16;1087826;54;19942;-81
2022/06/30 00:31:43;;;;;;;;;;;;;;;21.31;70.87;99428.78;1087824;54;19949;-81
2022/06/30 00:32:46;;;;;;;;;;;;;;;21.24;71.20;99425.31;1087837;54;19942;-81
2022/06/30 00:33:50;;;;;;;;;;;;;;;21.24;71.07;99438.06;1088802;46;19977;-81
2022/06/30 00:34:52;;;;;;;;;;;;;;;21.22;71.25;99435.59;1087914;54;19965;-81
2022/06/30 00:35:55;;;;;;;;;;;;;;;21.22;70.89;99441.03;1087799;54;19950;-81
2022/06/30 00:36:57;;;;;;;;;;;;;;;21.18;70.82;99440.66;1087840;54;19950;-81
2022/06/30 00:38:04;;;;;;;;;;;;;;;21.13;71.21;99437.78;1088036;47;19949;-83
2022/06/30 00:39:05;;;;;;;;;;;;;;;21.13;71.03;99439.69;1087804;54;20006;-80
2022/06/30 00:40:09;;;;;;;;;;;;;;;21.09;71.42;99431.16;1087822;54;19943;-83
2022/06/30 00:41:10;;;;;;;;;;;;;;;21.19;70.70;99436.03;1089692;39;20573;-82
2022/06/30 00:42:14;;;;;;;;;;;;;;;21.16;71.13;99441.97;1087886;54;19983;-81
2022/06/30 00:43:16;;;;;;;;;;;;;;;21.12;71.37;99435.31;1088248;39;20596;-82
2022/06/30 00:44:21;;;;;;;;;;;;;;;21.06;71.22;99433.50;1088118;46;19958;-82
2022/06/30 00:45:23;;;;;;;;;;;;;;;20.98;71.64;99434.66;1087785;54;19966;-81
2022/06/30 00:46:26;;;;;;;;;;;;;;;20.86;71.44;99427.25;1087855;54;19942;-81
2022/06/30 00:47:28;;;;;;;;;;;;;;;20.90;70.87;99432.25;1087814;54;19950;-81
2022/06/30 00:48:31;;;;;;;;;;;;;;;20.84;70.97;99428.56;1087986;54;19958;-81
2022/06/30 00:49:32;;;;;;;;;;;;;;;20.87;70.57;99428.09;1088306;54;19966;-82
2022/06/30 00:50:36;;;;;;;;;;;;;;;20.86;70.33;99427.25;1088198;54;20716;-83
2022/06/30 00:51:38;;;;;;;;;;;;;;;20.86;70.66;99431.88;1088231;54;19939;-80
2022/06/30 00:52:42;;;;;;;;;;;;;;;20.87;70.27;99436.25;1091279;39;20612;-82
2022/06/30 00:53:46;;;;;;;;;;;;;;;20.86;70.48;99427.25;1088258;54;19926;-81
2022/06/30 00:54:51;;;;;;;;;;;;;;;20.85;70.51;99431.03;1088268;54;19979;-81
2022/06/30 02:39:59;;;;;;;;;;;;;;;19.29;77.69;99400.03;1088189;54;20002;-83
2022/06/30 02:41:00;;;;;;;;;;;;;;;19.28;78.22;99402.94;1088334;54;19934;-86
2022/06/30 02:43:09;;;;;;;;;;;;;;;19.27;78.23;99401.31;1088500;54;19946;-85
2022/06/30 02:44:10;;;;;;;;;;;;;;;19.28;78.06;99408.38;1088469;54;19946;-84
2022/06/30 02:45:13;;;;;;;;;;;;;;;19.24;78.01;99399.03;1079768;54;21410;-85
2022/06/30 02:47:19;;;;;;;;;;;;;;;19.28;78.11;99397.53;1088827;54;19930;-86
2022/06/30 02:49:29;;;;;;;;;;;;;;;19.25;77.88;99400.69;1080349;54;19972;31
2022/06/30 02:50:35;;;;;;;;;;;;;;;19.24;77.70;99393.59;1083209;54;19943;-85
2022/06/30 02:52:42;;;;;;;;;;;;;;;19.21;77.72;99394.88;1088357;54;19934;-84
2022/06/30 02:53:44;;;;;;;;;;;;;;;19.25;77.39;99395.28;1088397;54;19942;-85
2022/06/30 02:55:52;;;;;;;;;;;;;;;19.22;77.82;99401.13;1087789;54;22061;-85
2022/06/30 03:00:18;;;;;;;;;;;;;;;19.11;77.85;99394.53;1087674;54;22302;-83
2022/06/30 03:01:20;;;;;;;;;;;;;;;19.14;77.68;99394.06;1090161;46;19942;-86
2022/06/30 03:03:27;;;;;;;;;;;;;;;19.16;77.75;99398.25;1079310;54;19953;31
2022/06/30 03:04:29;;;;;;;;;;;;;;;19.20;77.44;99397.78;1088357;54;19950;-84
2022/06/30 03:06:35;;;;;;;;;;;;;;;19.18;77.71;99401.53;1087754;54;19967;-86
2022/06/30 03:07:36;;;;;;;;;;;;;;;19.26;77.24;99407.78;1088253;54;19973;-85
2022/06/30 03:09:43;;;;;;;;;;;;;;;19.38;76.31;99408.72;1088431;54;19934;-86
2022/06/30 03:10:44;;;;;;;;;;;;;;;19.35;76.60;99406.47;1088408;54;19926;-84
2022/06/30 03:11:52;;;;;;;;;;;;;;;19.32;76.98;99401.47;1088398;54;19990;-84
2022/06/30 03:13:58;;;;;;;;;;;;;;;19.30;76.94;99408.97;1087784;54;19943;-83
2022/06/30 03:14:59;;;;;;;;;;;;;;;19.27;76.79;99412.16;1088297;54;19942;-86
2022/06/30 03:16:03;;;;;;;;;;;;;;;19.30;76.91;99414.41;1088331;54;19926;-84
2022/06/30 03:19:11;;;;;;;;;;;;;;;19.18;77.25;99411.56;1088293;39;21269;-85
2022/06/30 03:20:12;;;;;;;;;;;;;;;19.21;77.40;99415.72;1088289;54;19934;-83
2022/06/30 03:21:17;;;;;;;;;;;;;;;19.22;77.19;99414.66;1088233;54;19949;-84
2022/06/30 03:24:26;;;;;;;;;;;;;;;19.22;76.93;99412.81;1082921;54;19955;31
2022/06/30 03:25:34;;;;;;;;;;;;;;;19.19;76.79;99407.81;1078932;54;19927;-85
2022/06/30 03:26:38;;;;;;;;;;;;;;;19.18;77.09;99412.38;1088464;46;20018;-84
2022/06/30 03:27:42;;;;;;;;;;;;;;;19.13;77.17;99408.66;1088344;54;19943;-84
2022/06/30 03:29:51;;;;;;;;;;;;;;;19.16;76.94;99414.50;1076451;54;21091;31
2022/06/30 03:30:52;;;;;;;;;;;;;;;19.18;76.73;99411.56;1088389;54;19939;-83
2022/06/30 03:31:56;;;;;;;;;;;;;;;19.21;76.83;99410.28;1088393;54;19942;-84
2022/06/30 03:32:59;;;;;;;;;;;;;;;19.28;76.19;99411.06;1089922;39;20558;-85
2022/06/30 03:34:03;;;;;;;;;;;;;;;19.31;76.12;99414.22;1088185;54;19927;-83
2022/06/30 03:35:05;;;;;;;;;;;;;;;19.33;76.19;99413.97;1088322;54;19949;-85
2022/06/30 03:36:08;;;;;;;;;;;;;;;19.39;75.71;99413.09;1088344;54;19994;-84
2022/06/30 03:37:15;;;;;;;;;;;;;;;19.46;75.62;99415.78;1088297;54;19943;-88
2022/06/30 03:39:21;;;;;;;;;;;;;;;19.57;74.81;99420.50;1093620;31;20750;-86
2022/06/30 03:42:34;;;;;;;;;;;;;;;19.71;74.17;99415.81;1088243;46;19965;-83
2022/06/30 03:43:38;;;;;;;;;;;;;;;19.75;74.17;99417.00;1087640;54;19958;-85
2022/06/30 03:44:42;;;;;;;;;;;;;;;19.78;74.07;99411.16;1088158;54;20002;-84
2022/06/30 03:45:43;;;;;;;;;;;;;;;19.80;73.70;99413.63;1088553;54;19934;-84
2022/06/30 03:46:47;;;;;;;;;;;;;;;19.85;73.77;99415.69;1088413;54;20030;-84
2022/06/30 03:48:53;;;;;;;;;;;;;;;19.84;73.36;99411.34;1091789;39;20651;-82
2022/06/30 03:49:54;;;;;;;;;;;;;;;19.85;73.52;99407.56;1088437;54;19966;-83
2022/06/30 03:50:58;;;;;;;;;;;;;;;19.88;73.49;99410.72;1088242;54;19927;-84
2022/06/30 03:53:05;;;;;;;;;;;;;;;19.90;73.21;99408.59;1089793;46;19978;-85
2022/06/30 03:57:26;;;;;;;;;;;;;;;19.49;74.52;99407.22;1075518;54;21557;31
2022/06/30 04:00:38;;;;;;;;;;;;;;;19.37;75.51;99419.78;1088868;54;19998;-86
2022/06/30 04:03:57;;;;;;;;;;;;;;;19.46;74.93;99413.88;1087214;54;19982;-87
2022/06/30 04:05:00;;;;;;;;;;;;;;;19.56;74.42;99408.00;1088263;54;19967;-84
2022/06/30 04:06:04;;;;;;;;;;;;;;;19.64;74.35;99401.47;1088334;54;19943;-87
2022/06/30 04:07:05;;;;;;;;;;;;;;;19.69;73.74;99407.06;1088107;54;19943;-86
2022/06/30 04:08:09;;;;;;;;;;;;;;;19.71;73.67;99407.69;1088404;54;19942;-86
2022/06/30 04:10:18;;;;;;;;;;;;;;;19.84;73.09;99403.22;1087648;54;19962;-85
2022/06/30 04:12:24;;;;;;;;;;;;;;;19.90;72.70;99402.34;1088491;54;19942;-84
2022/06/30 04:13:25;;;;;;;;;;;;;;;19.91;72.64;99401.28;1088704;39;20633;-84
2022/06/30 04:14:28;;;;;;;;;;;;;;;19.94;72.68;99403.53;1088344;54;19949;-84
2022/06/30 04:15:30;;;;;;;;;;;;;;;19.96;72.80;99406.88;1088265;54;19949;-86
2022/06/30 04:17:41;;;;;;;;;;;;;;;19.95;72.29;99411.47;1088258;54;19930;-85
2022/06/30 04:18:42;;;;;;;;;;;;;;;19.99;72.32;99405.59;1088213;54;20622;-84
2022/06/30 04:19:46;;;;;;;;;;;;;;;19.96;72.38;99406.88;1088179;54;19942;-84
2022/06/30 04:20:50;;;;;;;;;;;;;;;19.98;72.26;99412.09;1088286;54;19944;-86
2022/06/30 04:21:51;;;;;;;;;;;;;;;20.00;72.25;99410.81;1088111;54;20581;-86
2022/06/30 04:22:55;;;;;;;;;;;;;;;20.05;71.92;99421.00;1088714;39;20200;-85
2022/06/30 04:23:57;;;;;;;;;;;;;;;20.08;71.87;99410.53;1088286;54;19930;-84
2022/06/30 04:25:01;;;;;;;;;;;;;;;20.09;71.86;99412.19;1088188;54;19943;-86
2022/06/30 04:26:03;;;;;;;;;;;;;;;20.09;71.74;99417.63;1088234;54;19966;-84
2022/06/30 04:27:08;;;;;;;;;;;;;;;20.12;71.96;99412.78;1088144;54;19949;-85
2022/06/30 04:28:09;;;;;;;;;;;;;;;20.15;71.63;99410.47;1088310;54;19949;-85
2022/06/30 04:29:13;;;;;;;;;;;;;;;20.15;71.58;99404.19;1088273;54;19943;-84
2022/06/30 04:30:15;;;;;;;;;;;;;;;20.20;71.67;99412.50;1088228;54;19938;-85
2022/06/30 04:32:38;;;;;;;;;;;;;;;20.25;71.27;99410.78;1088284;54;19927;-83
2022/06/30 04:33:45;;;;;;;;;;;;;;;20.29;71.20;99405.75;1088311;54;19994;-85
2022/06/30 04:34:46;;;;;;;;;;;;;;;20.31;71.37;99403.59;1088771;47;20705;-84
2022/06/30 04:35:50;;;;;;;;;;;;;;;20.34;71.11;99411.31;1088379;54;19950;-83
2022/06/30 04:36:51;;;;;;;;;;;;;;;20.37;71.02;99401.88;1088198;54;19943;-83
2022/06/30 04:41:27;;;;;;;;;;;;;;;20.19;72.43;99416.28;1088607;39;20590;-85
2022/06/30 04:42:28;;;;;;;;;;;;;;;20.09;72.72;99406.75;1088294;54;19966;-84
2022/06/30 04:43:33;;;;;;;;;;;;;;;20.07;73.01;99408.03;1088181;54;19943;-85
2022/06/30 04:45:39;;;;;;;;;;;;;;;20.09;72.91;99406.75;1088229;54;19934;-84
2022/06/30 04:47:45;;;;;;;;;;;;;;;20.12;73.61;99415.50;1088252;54;19923;-85
2022/06/30 04:48:52;;;;;;;;;;;;;;;20.09;73.97;99406.75;1089724;47;19927;-84
2022/06/30 04:49:54;;;;;;;;;;;;;;;20.17;73.37;99408.34;1088183;54;19949;-87
2022/06/30 04:50:58;;;;;;;;;;;;;;;20.25;72.90;99415.38;1088208;54;19966;-82
2022/06/30 04:51:59;;;;;;;;;;;;;;;20.28;73.06;99409.50;1087861;54;19943;-81
2022/06/30 04:53:03;;;;;;;;;;;;;;;20.34;72.84;99414.03;1087788;54;19965;-79
2022/06/30 04:54:04;;;;;;;;;;;;;;;20.39;72.58;99414.19;1087807;54;20022;-81
2022/06/30 04:55:08;;;;;;;;;;;;;;;20.42;72.49;99411.00;1087821;54;19954;-80
2022/06/30 04:56:10;;;;;;;;;;;;;;;20.40;73.05;99409.59;1087792;54;19950;-80
2022/06/30 04:57:14;;;;;;;;;;;;;;;20.38;73.06;99411.69;1087895;54;19942;-81
2022/06/30 04:58:17;;;;;;;;;;;;;;;20.26;73.54;99409.72;1088189;39;20566;-79
2022/06/30 04:59:18;;;;;;;;;;;;;;;20.18;74.11;99409.19;1087814;54;19943;-81
2022/06/30 05:00:22;;;;;;;;;;;;;;;20.18;74.05;99409.19;1093353;39;20546;-81
2022/06/30 05:01:32;;;;;;;;;;;;;;;20.23;73.50;99406.63;1087688;54;19942;-79
2022/06/30 05:02:33;;;;;;;;;;;;;;;20.15;73.84;99407.75;1087823;54;19949;-80
2022/06/30 05:03:37;;;;;;;;;;;;;;;20.13;74.33;99406.28;1087837;54;19949;-79
2022/06/30 05:04:42;;;;;;;;;;;;;;;20.18;74.15;99398.31;1087928;54;20547;-80
2022/06/30 05:05:46;;;;;;;;;;;;;;;20.23;73.70;99401.19;1087749;54;19938;-80
2022/06/30 05:06:47;;;;;;;;;;;;;;;20.29;73.17;99394.88;1087977;54;19943;-80
2022/06/30 05:08:54;;;;;;;;;;;;;;;20.43;72.72;99395.56;1073000;54;21412;31
2022/06/30 05:11:00;;;;;;;;;;;;;;;20.44;72.34;99394.53;1087731;54;19939;-85
2022/06/30 05:12:02;;;;;;;;;;;;;;;20.38;72.39;99398.13;1088455;54;19945;-85
2022/06/30 05:14:07;;;;;;;;;;;;;;;20.35;72.79;99396.69;1081651;54;20208;-84
2022/06/30 05:15:09;;;;;;;;;;;;;;;20.29;73.05;99388.59;1088698;54;19938;-82
2022/06/30 05:16:13;;;;;;;;;;;;;;;20.26;73.03;99388.00;1088748;54;19946;-83
2022/06/30 05:17:15;;;;;;;;;;;;;;;20.30;72.84;99396.53;1088620;54;19935;-87
2022/06/30 05:18:19;;;;;;;;;;;;;;;20.34;72.71;99397.75;1088683;54;20823;-84
2022/06/30 05:19:20;;;;;;;;;;;;;;;20.41;72.43;99395.78;1089036;39;20823;-86
2022/06/30 05:20:26;;;;;;;;;;;;;;;20.47;72.27;99393.22;1090636;46;19995;-82
2022/06/30 05:21:27;;;;;;;;;;;;;;;20.52;72.04;99399.66;1088033;54;20042;-80
2022/06/30 05:22:31;;;;;;;;;;;;;;;20.58;71.82;99395.19;1088428;54;19939;-85
2022/06/30 05:23:35;;;;;;;;;;;;;;;20.61;71.60;99397.44;1088693;54;19927;-84
2022/06/30 05:27:08;;;;;;;;;;;;;;;20.85;70.90;99398.44;1088376;54;19983;-85
2022/06/30 05:29:14;;;;;;;;;;;;;;;20.98;70.31;99408.31;1087716;54;20006;-84
2022/06/30 05:30:16;;;;;;;;;;;;;;;21.03;70.10;99403.03;1088257;46;19958;-80
2022/06/30 05:31:19;;;;;;;;;;;;;;;21.07;70.13;99402.53;1087871;54;20029;-84
2022/06/30 05:32:20;;;;;;;;;;;;;;;21.11;70.20;99407.28;1087971;54;19939;-83
2022/06/30 05:33:24;;;;;;;;;;;;;;;21.14;69.95;99406.03;1090409;46;19994;-82
2022/06/30 05:34:25;;;;;;;;;;;;;;;21.10;70.04;99405.66;1089631;46;19969;-82
2022/06/30 05:35:32;;;;;;;;;;;;;;;21.10;69.41;99413.81;1087981;54;19934;-83
2022/06/30 05:36:33;;;;;;;;;;;;;;;21.04;70.13;99406.56;1087899;54;20686;-83
2022/06/30 05:37:36;;;;;;;;;;;;;;;21.09;70.10;99414.03;1088084;54;19943;-82
2022/06/30 05:38:38;;;;;;;;;;;;;;;21.13;70.02;99404.38;1088046;54;19949;-83
2022/06/30 05:39:42;;;;;;;;;;;;;;;21.19;69.65;99403.44;1088091;54;19943;-82
2022/06/30 05:40:47;;;;;;;;;;;;;;;21.24;69.70;99405.47;1089003;39;20610;-83
2022/06/30 05:41:48;;;;;;;;;;;;;;;21.31;69.51;99403.47;1088101;54;20018;-84
2022/06/30 05:42:52;;;;;;;;;;;;;;;21.34;69.30;99406.56;1088497;46;20018;-81
2022/06/30 05:43:53;;;;;;;;;;;;;;;21.22;69.41;99407.56;1087939;54;19967;-80
2022/06/30 05:45:02;;;;;;;;;;;;;;;21.15;69.59;99402.25;1087926;54;19950;-80
2022/06/30 05:46:03;;;;;;;;;;;;;;;21.24;69.55;99398.16;1087978;54;19942;-80
2022/06/30 05:47:07;;;;;;;;;;;;;;;21.27;69.14;99394.94;1088384;46;19943;-79
2022/06/30 05:48:08;;;;;;;;;;;;;;;21.34;69.01;99400.28;1088435;54;20015;-78
2022/06/30 05:49:12;;;;;;;;;;;;;;;21.43;69.03;99403.53;1088387;54;19950;-81
2022/06/30 05:50:14;;;;;;;;;;;;;;;21.48;68.72;99400.94;1089007;46;19938;-81
2022/06/30 05:51:20;;;;;;;;;;;;;;;21.53;68.74;99397.50;1088645;46;19993;-81
2022/06/30 05:52:21;;;;;;;;;;;;;;;21.48;68.51;99403.66;1088089;54;19943;-78
2022/06/30 05:53:25;;;;;;;;;;;;;;;21.55;68.76;99409.00;1088004;54;19943;-79
2022/06/30 05:54:26;;;;;;;;;;;;;;;21.60;68.55;99399.09;1088043;54;19942;-78
2022/06/30 05:55:30;;;;;;;;;;;;;;;21.66;68.35;99403.59;1088071;54;19934;-80
2022/06/30 05:56:31;;;;;;;;;;;;;;;21.71;68.26;99402.09;1088034;54;19943;-80
2022/06/30 05:57:35;;;;;;;;;;;;;;;21.70;67.59;99397.69;1087947;54;19994;-81
2022/06/30 05:58:36;;;;;;;;;;;;;;;21.71;67.87;99400.19;1089359;46;19943;-80
2022/06/30 05:59:40;;;;;;;;;;;;;;;21.77;67.92;99396.50;1088499;54;19933;-80
2022/06/30 06:00:41;;;;;;;;;;;;;;;21.83;67.78;99393.94;1088497;54;19938;-81
2022/06/30 06:01:45;;;;;;;;;;;;;;;21.80;67.73;99393.34;1088426;54;19983;-80
2022/06/30 06:02:46;;;;;;;;;;;;;;;21.87;67.56;99393.22;1088456;54;19950;-78
2022/06/30 06:03:50;;;;;;;;;;;;;;;21.90;67.33;99389.19;1088441;54;19926;-79
2022/06/30 06:04:51;;;;;;;;;;;;;;;21.94;67.24;99393.94;1088467;54;19942;-80
2022/06/30 06:05:55;;;;;;;;;;;;;;;21.90;67.44;99387.31;1088360;54;20818;-81
2022/06/30 06:06:58;;;;;;;;;;;;;;;21.96;67.03;99386.38;1088433;54;19943;-79
2022/06/30 06:08:06;;;;;;;;;;;;;;;22.01;66.86;99393.81;1088387;54;19934;-81
2022/06/30 06:09:09;;;;;;;;;;;;;;;21.99;66.96;99395.13;1088011;54;19942;-79
2022/06/30 06:10:13;;;;;;;;;;;;;;;22.01;66.84;99391.09;1087993;54;19946;-79
2022/06/30 06:11:17;;;;;;;;;;;;;;;22.06;66.53;99393.94;1088238;54;19943;-79
2022/06/30 06:12:18;;;;;;;;;;;;;;;22.08;66.47;99393.72;1088480;54;19926;-80
2022/06/30 06:13:21;;;;;;;;;;;;;;;22.11;66.83;99390.50;1088446;54;20113;-80
2022/06/30 06:14:23;;;;;;;;;;;;;;;22.13;66.34;99385.66;1088519;54;19927;-80
2022/06/30 06:15:26;;;;;;;;;;;;;;;22.11;66.70;99388.63;1088485;54;20229;-79
2022/06/30 06:16:28;;;;;;;;;;;;;;;22.14;66.30;99384.59;1088494;54;19935;-78
2022/06/30 06:17:32;;;;;;;;;;;;;;;22.16;66.47;99390.63;1088769;46;19951;-79
2022/06/30 06:18:33;;;;;;;;;;;;;;;22.08;66.14;99382.84;1088492;54;19938;-81
2022/06/30 06:19:36;;;;;;;;;;;;;;;22.00;66.73;99385.91;1088521;54;19930;-81
2022/06/30 06:20:41;;;;;;;;;;;;;;;22.01;66.32;99379.41;1093619;46;19950;-82
2022/06/30 06:21:45;;;;;;;;;;;;;;;22.06;66.09;99379.50;1088442;54;19938;-83
2022/06/30 06:22:49;;;;;;;;;;;;;;;22.10;66.24;99381.53;1089044;46;19927;-82
2022/06/30 06:23:52;;;;;;;;;;;;;;;22.17;66.04;99381.41;1089361;46;19978;-82
2022/06/30 06:24:53;;;;;;;;;;;;;;;22.23;65.89;99385.88;1091579;46;19967;-83
2022/06/30 06:25:57;;;;;;;;;;;;;;;22.35;65.69;99379.63;1087848;54;19942;-83
2022/06/30 06:27:01;;;;;;;;;;;;;;;22.39;65.58;99378.91;1088038;47;19943;-81
2022/06/30 06:29:21;;;;;;;;;;;;;;;22.40;65.52;99377.03;1087972;54;19954;-81
2022/06/30 06:30:22;;;;;;;;;;;;;;;22.44;65.35;99373.56;1088074;54;19934;-83
2022/06/30 06:31:26;;;;;;;;;;;;;;;22.45;64.89;99377.16;1088550;46;19979;-82
2022/06/30 06:32:27;;;;;;;;;;;;;;;22.46;65.13;99372.50;1091021;39;20185;-83
2022/06/30 06:33:31;;;;;;;;;;;;;;;22.52;65.13;99371.56;1088017;47;19949;-82
2022/06/30 06:34:35;;;;;;;;;;;;;;;22.58;64.87;99376.06;1088013;54;19943;-81
2022/06/30 06:35:36;;;;;;;;;;;;;;;22.63;64.73;99373.41;1088014;54;19951;-79
2022/06/30 06:36:40;;;;;;;;;;;;;;;22.66;64.67;99372.94;1087934;54;19999;-80
2022/06/30 06:37:43;;;;;;;;;;;;;;;22.66;64.83;99372.94;1088480;46;20054;-80
2022/06/30 06:38:51;;;;;;;;;;;;;;;22.62;64.24;99369.06;1088146;46;19950;-80
2022/06/30 06:39:55;;;;;;;;;;;;;;;22.71;64.56;99372.22;1088026;54;19949;-80
2022/06/30 06:40:56;;;;;;;;;;;;;;;22.78;64.15;99372.91;1088330;39;20614;-82
2022/06/30 06:41:59;;;;;;;;;;;;;;;22.83;64.38;99370.31;1087918;54;20007;-81
2022/06/30 06:43:01;;;;;;;;;;;;;;;22.92;64.11;99370.72;1091161;46;19966;-81
2022/06/30 06:44:04;;;;;;;;;;;;;;;22.95;63.62;99369.44;1088044;54;19991;-81
2022/06/30 06:45:06;;;;;;;;;;;;;;;22.95;63.84;99361.25;1088060;54;20572;-81
2022/06/30 06:46:11;;;;;;;;;;;;;;;23.09;63.42;99368.06;1087991;54;19954;-81
2022/06/30 06:47:15;;;;;;;;;;;;;;;23.20;63.36;99360.91;1088086;54;19943;-79
2022/06/30 06:48:16;;;;;;;;;;;;;;;23.30;62.88;99372.00;1088041;54;19950;-80
2022/06/30 06:49:19;;;;;;;;;;;;;;;23.35;62.78;99360.38;1087962;54;19950;-80
2022/06/30 06:50:21;;;;;;;;;;;;;;;23.43;62.44;99364.59;1088024;54;19949;-79
2022/06/30 06:51:24;;;;;;;;;;;;;;;23.50;62.37;99363.38;1087906;54;19966;-80
2022/06/30 06:52:29;;;;;;;;;;;;;;;23.61;62.26;99360.81;1088053;54;19949;-81
2022/06/30 06:53:31;;;;;;;;;;;;;;;23.68;62.00;99356.84;1087952;54;19954;-81
2022/06/30 06:54:37;;;;;;;;;;;;;;;23.74;61.91;99355.00;1088011;54;19943;-81
2022/06/30 06:55:38;;;;;;;;;;;;;;;23.85;61.59;99356.03;1087999;54;19922;-80
2022/06/30 06:56:42;;;;;;;;;;;;;;;23.94;61.15;99354.56;1089377;39;20763;-81
2022/06/30 06:57:43;;;;;;;;;;;;;;;23.96;60.92;99352.38;1088106;54;19942;-84
2022/06/30 06:58:47;;;;;;;;;;;;;;;24.10;61.25;99347.38;1088138;54;19986;-82
2022/06/30 06:59:51;;;;;;;;;;;;;;;24.07;61.24;99350.63;1088346;54;19939;-83
2022/06/30 07:00:53;;;;;;;;;;;;;;;24.21;60.84;99355.72;1091745;39;20590;-82
2022/06/30 07:01:57;;;;;;;;;;;;;;;24.18;60.26;99354.31;1088413;54;19943;-83
2022/06/30 07:02:58;;;;;;;;;;;;;;;24.33;60.06;99361.91;1088415;54;20563;-81
2022/06/30 07:04:02;;;;;;;;;;;;;;;24.45;59.85;99354.44;1088196;54;19942;-81
2022/06/30 07:05:04;;;;;;;;;;;;;;;24.58;59.71;99358.69;1088259;54;19927;-82
2022/06/30 07:06:09;;;;;;;;;;;;;;;24.67;59.56;99345.38;1088230;54;19942;-83
2022/06/30 07:07:13;;;;;;;;;;;;;;;24.82;59.44;99352.16;1088540;54;19950;-82
2022/06/30 07:08:14;;;;;;;;;;;;;;;24.89;58.85;99347.31;1088555;54;19927;-82
2022/06/30 07:09:18;;;;;;;;;;;;;;;24.95;58.75;99356.41;1088571;54;19927;-81
2022/06/30 07:10:21;;;;;;;;;;;;;;;24.95;58.84;99351.75;1088537;54;19930;-82
2022/06/30 07:11:25;;;;;;;;;;;;;;;25.04;57.94;99355.66;1088541;54;19939;-82
2022/06/30 07:12:26;;;;;;;;;;;;;;;25.12;58.15;99350.84;1088512;54;19943;-83
2022/06/30 07:13:30;;;;;;;;;;;;;;;25.25;58.20;99349.59;1088522;54;19927;-82
2022/06/30 07:14:31;;;;;;;;;;;;;;;25.37;57.70;99358.44;1088552;54;19924;-81
2022/06/30 07:15:35;;;;;;;;;;;;;;;25.45;57.67;99355.28;1088356;54;19942;-79
2022/06/30 07:16:38;;;;;;;;;;;;;;;25.44;57.72;99353.63;1088289;54;20014;-83
2022/06/30 07:17:40;;;;;;;;;;;;;;;25.51;57.56;99347.91;1088796;46;19946;-83
2022/06/30 07:18:44;;;;;;;;;;;;;;;25.62;57.38;99359.78;1088228;54;19994;-80
2022/06/30 07:20:51;;;;;;;;;;;;;;;25.69;56.17;99365.88;1087750;54;19945;-80
2022/06/30 07:21:55;;;;;;;;;;;;;;;25.69;56.39;99361.19;1087871;47;19951;-82
2022/06/30 07:22:56;;;;;;;;;;;;;;;25.70;56.11;99362.03;1088123;54;19939;-80
2022/06/30 07:23:59;;;;;;;;;;;;;;;25.73;56.33;99366.16;1088155;54;19939;-82
2022/06/30 07:25:01;;;;;;;;;;;;;;;25.70;56.01;99357.38;1088085;54;19946;-80
2022/06/30 07:26:07;;;;;;;;;;;;;;;25.75;56.25;99359.34;1088268;47;19949;-80
2022/06/30 07:27:08;;;;;;;;;;;;;;;25.85;56.30;99358.59;1088269;46;19949;-80
2022/06/30 07:28:12;;;;;;;;;;;;;;;25.90;56.38;99361.34;1087947;54;19937;-83
2022/06/30 07:29:16;;;;;;;;;;;;;;;25.84;55.72;99357.75;1088089;54;19967;-80
2022/06/30 07:30:18;;;;;;;;;;;;;;;26.00;55.54;99360.63;1087928;54;20002;-80
2022/06/30 07:31:23;;;;;;;;;;;;;;;25.88;54.94;99352.59;1087882;54;19984;-81
2022/06/30 07:32:24;;;;;;;;;;;;;;;25.99;55.50;99365.25;1087947;54;19935;-81
2022/06/30 07:33:28;;;;;;;;;;;;;;;26.13;55.33;99359.34;1087913;54;19927;-79
2022/06/30 07:34:30;;;;;;;;;;;;;;;26.13;54.74;99362.09;1087966;54;19949;-86
2022/06/30 07:35:33;;;;;;;;;;;;;;;26.16;54.89;99356.09;1087930;54;19943;-80
2022/06/30 07:36:35;;;;;;;;;;;;;;;26.23;55.04;99359.41;1087927;54;19969;-82
2022/06/30 07:37:39;;;;;;;;;;;;;;;26.32;53.79;99359.72;1087780;54;19943;-82
2022/06/30 07:38:40;;;;;;;;;;;;;;;26.44;54.32;99356.78;1088112;54;19927;-80
2022/06/30 07:39:44;;;;;;;;;;;;;;;26.51;53.80;99354.63;1088255;54;19942;-79
2022/06/30 07:40:45;;;;;;;;;;;;;;;26.45;53.96;99361.19;1088146;54;19964;-81
2022/06/30 07:41:52;;;;;;;;;;;;;;;26.57;53.28;99353.53;1087927;47;19934;-81
2022/06/30 07:42:53;;;;;;;;;;;;;;;26.57;53.33;99359.03;1087840;54;20005;-80
2022/06/30 07:44:03;;;;;;;;;;;;;;;26.76;53.12;99355.81;1087933;54;19951;-80
2022/06/30 07:45:05;;;;;;;;;;;;;;;26.88;52.92;99359.16;1087884;54;19950;-81
2022/06/30 07:46:11;;;;;;;;;;;;;;;26.98;52.66;99349.31;1087812;54;19949;-82
2022/06/30 07:47:12;;;;;;;;;;;;;;;26.86;51.97;99353.13;1087870;54;20058;-82
2022/06/30 07:48:16;;;;;;;;;;;;;;;26.62;52.03;99353.56;1087854;54;19943;-80
2022/06/30 07:49:17;;;;;;;;;;;;;;;26.69;52.45;99353.31;1087933;54;19970;-82
2022/06/30 07:50:21;;;;;;;;;;;;;;;26.79;51.85;99358.03;1090797;39;20570;-80
2022/06/30 07:51:25;;;;;;;;;;;;;;;26.69;51.45;99347.00;1088032;54;19983;-81
2022/06/30 07:52:26;;;;;;;;;;;;;;;26.62;51.19;99356.31;1087988;54;19942;-82
2022/06/30 07:53:30;;;;;;;;;;;;;;;26.70;51.55;99346.72;1087913;54;19983;-82
2022/06/30 07:54:32;;;;;;;;;;;;;;;26.63;50.97;99351.66;1087969;54;19949;-82
2022/06/30 07:55:36;;;;;;;;;;;;;;;26.59;51.40;99350.56;1088164;54;19942;-83
2022/06/30 07:56:37;;;;;;;;;;;;;;;26.58;51.62;99354.38;1088425;54;19942;-83
2022/06/30 07:57:46;;;;;;;;;;;;;;;26.56;51.80;99359.31;1088352;54;19987;-82
2022/06/30 07:58:50;;;;;;;;;;;;;;;26.63;51.76;99354.38;1088324;54;19998;-81
2022/06/30 07:59:51;;;;;;;;;;;;;;;26.87;51.63;99346.53;1088352;54;19949;-81
2022/06/30 08:00:55;;;;;;;;;;;;;;;26.95;51.05;99342.47;1088323;54;19938;-82
2022/06/30 08:01:59;;;;;;;;;;;;;;;27.15;50.81;99349.91;1088232;54;19963;-77
2022/06/30 08:03:00;;;;;;;;;;;;;;;27.23;50.18;99349.34;1090193;46;19951;-81
2022/06/30 08:04:04;;;;;;;;;;;;;;;27.18;49.41;99340.28;1089748;39;20617;-81
2022/06/30 08:05:06;;;;;;;;;;;;;;;27.07;47.60;99336.72;1088303;54;19947;-80